Startpagina
METAR-TAF:

METAR-TAF

Vliegvelden :

Sibulan Airport

Dumaguete, Filippijnen

breedte: 09-20-01N, lengte: 123-18-02E, hoogte: 5 m

Actueel weer

Dit bericht is 1 uur en het 9 minuten geleden gemaakt, om 10:00 UTC
Weinig wind
Temperatuur 30°C
Vochtigheid 70%
Druk 1006 hPa
Zicht 10 km of meer
Weinig wolken op 1500 ft
Verspreide wolken op 7000 ft

METAR: RPVD 251000Z 00000KT 9999 FEW015 SCT070 30/24 Q1006 RMK A2971

Tijdstip: 19:09 (11:09 UTC)

Verwachting

Dit bericht is 6 uur en het 9 minuten geleden gemaakt, om 05:00 UTC
Verwachting geldig van 25 om 06 UTC tot 26 om 06 UTC
Wind 6 kt uit het westen
Zicht 10 km of meer
Weinig wolken op 1500 ft
Gebroken wolken op 7000 ft
Tijdelijke
van 25 om 06 UTC tot 25 om 12 UTC
Weinig wolken op 1500 ft
Verspreide wolken op 7000 ft
Wijzigt naar
van 25 om 15 UTC tot 25 om 17 UTC
Weinig wolken op 1500 ft
Verspreide wolken op 7000 ft

TAF: RPVD 250500Z 2506/2606 27006KT 9999 FEW015 BKN070 TEMPO 2506/2512 FEW015 SCT070 BECMG 2515/2517 FEW015 SCT070

Waarnemingen en weersverwachtingen van meer dan 4000 vliegvelden (METAR en TAF).

De beschikbare stations zijn de gele en rode punten op de kaart.

Ga met uw muis naar het station om de naam te zien.

Klik dan om waarnemingen en weersverwachtingen te zien.

kaart wijzigen: klik op de groene knoppen met een zwart kruis om in te zoomen, op de groene knop met een streepje om uit te zoomen of op de groene pijlen voor aangrenzende kaarten.


METAR-TAF: